Time;durP1;ratioP1;P1;durP2;ratioP2;P2;SDS_P1;SDS_P2;PMS_P1;PMS_P2;Temp;Humidity;BMP_temperature;BMP_pressure;BME280_temperature;BME280_humidity;BME280_pressure;Samples;Min_cycle;Max_cycle;Signal;HPM_P1;HPM_P2
2023/12/08 00:00:45;;;;;;;;;;;;;;;-0.47;100.00;100968.00;5002698;28;19932;-80
2023/12/08 00:03:13;;;;;;;;;;;;;;;-0.46;100.00;100963.47;5018156;28;19929;-81
2023/12/08 00:05:41;;;;;;;;;;;;;;;-0.52;100.00;100963.22;5007093;28;19927;-81
2023/12/08 00:08:14;;;;;;;;;;;;;;;-0.52;100.00;100954.38;5017215;28;19929;-82
2023/12/08 00:10:47;;;;;;;;;;;;;;;-0.52;100.00;100967.75;5005937;28;19929;-81
2023/12/08 00:13:15;;;;;;;;;;;;;;;-0.52;100.00;100959.72;5005441;28;19925;-81
2023/12/08 00:15:44;;;;;;;;;;;;;;;-0.53;100.00;100966.09;5000450;28;19928;-81
2023/12/08 00:18:17;;;;;;;;;;;;;;;-0.57;100.00;100971.00;5006897;28;20208;-81
2023/12/08 00:20:50;;;;;;;;;;;;;;;-0.58;100.00;100955.16;5006717;28;19932;-80
2023/12/08 00:23:23;;;;;;;;;;;;;;;-0.67;100.00;100954.53;4999717;28;19925;-81
2023/12/08 00:25:56;;;;;;;;;;;;;;;-0.64;100.00;100958.66;5015229;28;19921;-81
2023/12/08 00:28:29;;;;;;;;;;;;;;;-0.66;100.00;100955.34;5000656;28;19926;-80
2023/12/08 00:31:04;;;;;;;;;;;;;;;-0.65;100.00;100955.13;4998083;28;19921;-81
2023/12/08 00:33:32;;;;;;;;;;;;;;;-0.66;100.00;100955.34;5003656;28;20271;-81
2023/12/08 00:35:59;;;;;;;;;;;;;;;-0.68;100.00;100958.22;5004065;28;19932;-81
2023/12/08 00:38:27;;;;;;;;;;;;;;;-0.73;100.00;100958.81;5017372;28;19929;-81
2023/12/08 00:40:56;;;;;;;;;;;;;;;-0.78;100.00;100947.88;5004229;28;19929;-81
2023/12/08 00:43:29;;;;;;;;;;;;;;;-0.84;100.00;100947.84;5001799;28;19926;-81
2023/12/08 00:45:59;;;;;;;;;;;;;;;-0.84;100.00;100945.16;5003470;28;20008;-81
2023/12/08 00:48:33;;;;;;;;;;;;;;;-0.88;100.00;100948.25;5003800;28;20358;-80
2023/12/08 00:51:07;;;;;;;;;;;;;;;-0.87;100.00;100944.56;5004881;28;20307;-81
2023/12/08 00:53:35;;;;;;;;;;;;;;;-0.97;100.00;100944.06;5007653;28;20003;-81
2023/12/08 00:56:03;;;;;;;;;;;;;;;-0.92;100.00;100930.16;5005639;28;19922;-81
2023/12/08 00:58:30;;;;;;;;;;;;;;;-0.94;100.00;100921.50;5003614;28;19926;-82
2023/12/08 01:00:58;;;;;;;;;;;;;;;-0.93;100.00;100912.47;5020687;28;19921;-81
2023/12/08 01:03:33;;;;;;;;;;;;;;;-0.95;100.00;100918.00;5008152;28;19928;-81
2023/12/08 01:06:06;;;;;;;;;;;;;;;-1.01;100.00;100912.63;5017670;28;19930;-81
2023/12/08 01:08:34;;;;;;;;;;;;;;;-1.07;100.00;100912.38;5013870;28;19921;-81
2023/12/08 01:11:02;;;;;;;;;;;;;;;-1.11;100.00;100912.97;5013351;28;19929;-81
2023/12/08 01:13:29;;;;;;;;;;;;;;;-1.10;100.00;100909.28;5018504;28;19925;-82
2023/12/08 01:15:57;;;;;;;;;;;;;;;-1.15;100.00;100914.41;5011858;28;19928;-81
2023/12/08 01:18:25;;;;;;;;;;;;;;;-1.08;100.00;100912.59;5010803;28;19921;-81
2023/12/08 01:20:55;;;;;;;;;;;;;;;-1.09;100.00;100911.78;5011514;28;19928;-81
2023/12/08 01:23:28;;;;;;;;;;;;;;;-1.09;100.00;100906.44;5013414;28;19937;-82
2023/12/08 01:26:01;;;;;;;;;;;;;;;-1.15;100.00;100904.53;5008091;28;19964;-82
2023/12/08 01:28:34;;;;;;;;;;;;;;;-1.15;100.00;100901.84;5008145;28;19952;-82
2023/12/08 01:31:07;;;;;;;;;;;;;;;-1.15;100.00;100893.84;5001527;28;20485;-82
2023/12/08 01:33:35;;;;;;;;;;;;;;;-1.12;100.00;100896.16;5003440;28;19929;-81
2023/12/08 01:36:05;;;;;;;;;;;;;;;-1.17;100.00;100895.06;5022406;28;19925;-81
2023/12/08 01:38:33;;;;;;;;;;;;;;;-1.13;100.00;100886.47;5001012;28;19921;-82
2023/12/08 01:41:01;;;;;;;;;;;;;;;-1.21;100.00;100887.44;5003021;28;19921;-81
2023/12/08 01:43:29;;;;;;;;;;;;;;;-1.27;100.00;100888.25;5008893;28;19921;-82
2023/12/08 01:46:02;;;;;;;;;;;;;;;-1.27;100.00;100892.75;5002101;28;19929;-82
2023/12/08 01:48:35;;;;;;;;;;;;;;;-1.29;100.00;100884.94;5020747;28;19925;-81
2023/12/08 01:51:05;;;;;;;;;;;;;;;-1.32;100.00;100871.97;5009318;28;20317;-82
2023/12/08 01:53:33;;;;;;;;;;;;;;;-1.37;100.00;100855.72;5021234;28;19922;-82
2023/12/08 01:56:07;;;;;;;;;;;;;;;-1.35;100.00;100860.84;5008819;28;19925;-82
2023/12/08 01:58:35;;;;;;;;;;;;;;;-1.41;100.00;100851.78;5003749;28;19929;-81
2023/12/08 02:01:08;;;;;;;;;;;;;;;-1.45;100.00;100858.53;5009482;28;19940;-81
2023/12/08 02:03:42;;;;;;;;;;;;;;;-1.40;100.00;100856.94;5005067;28;19936;-81
2023/12/08 02:06:12;;;;;;;;;;;;;;;-1.45;100.00;100859.38;5007684;28;19928;-81
2023/12/08 02:08:40;;;;;;;;;;;;;;;-1.50;100.00;100861.00;5007980;28;21926;-81
2023/12/08 02:11:08;;;;;;;;;;;;;;;-1.54;100.00;100861.38;5001697;28;19932;-82
2023/12/08 02:13:41;;;;;;;;;;;;;;;-1.54;100.00;100852.53;5004473;28;19933;-81
2023/12/08 02:16:12;;;;;;;;;;;;;;;-1.51;100.00;100846.81;5006503;28;19921;-81
2023/12/08 02:18:41;;;;;;;;;;;;;;;-1.55;100.00;100846.41;5017827;28;19944;-81
2023/12/08 02:21:15;;;;;;;;;;;;;;;-1.49;100.00;100838.59;5020266;28;20551;-81
2023/12/08 02:23:46;;;;;;;;;;;;;;;-1.49;100.00;100830.59;5007413;28;19927;-81
2023/12/08 02:26:20;;;;;;;;;;;;;;;-1.55;100.00;100814.38;5007122;28;20452;-80
2023/12/08 02:28:48;;;;;;;;;;;;;;;-1.63;100.00;100803.84;5008377;28;19925;-81
2023/12/08 02:31:25;;;;;;;;;;;;;;;-1.56;100.00;100795.84;5004988;28;20297;-81
2023/12/08 02:33:54;;;;;;;;;;;;;;;-1.62;100.00;100784.13;5004448;28;20420;-80
2023/12/08 02:36:22;;;;;;;;;;;;;;;-1.57;100.00;100781.69;5004769;28;19921;-81
2023/12/08 02:38:58;;;;;;;;;;;;;;;-1.59;100.00;100782.91;5001340;28;20373;-80
2023/12/08 02:41:29;;;;;;;;;;;;;;;-1.65;100.00;100768.50;5001937;28;19925;-81
2023/12/08 02:44:02;;;;;;;;;;;;;;;-1.58;100.00;100771.22;5004628;28;19921;-79
2023/12/08 02:46:35;;;;;;;;;;;;;;;-1.65;100.00;100773.84;5000160;28;19932;-80
2023/12/08 02:49:03;;;;;;;;;;;;;;;-1.65;100.00;100775.69;5000723;28;19950;-81
2023/12/08 02:51:31;;;;;;;;;;;;;;;-1.67;100.00;100765.22;5000522;28;19925;-81
2023/12/08 02:54:05;;;;;;;;;;;;;;;-1.71;100.00;100769.31;5009657;28;19929;-80
2023/12/08 02:56:33;;;;;;;;;;;;;;;-1.69;100.00;100763.78;5010321;28;19926;-80
2023/12/08 02:59:01;;;;;;;;;;;;;;;-1.70;100.00;100760.25;5004042;28;19933;-80
2023/12/08 03:01:33;;;;;;;;;;;;;;;-1.69;100.00;100753.09;5011756;28;19922;-80
2023/12/08 03:04:08;;;;;;;;;;;;;;;-1.64;100.00;100751.47;5005282;28;19925;-80
2023/12/08 03:06:41;;;;;;;;;;;;;;;-1.69;100.00;100743.25;5012398;28;19933;-80
2023/12/08 03:09:15;;;;;;;;;;;;;;;-1.65;100.00;100744.50;5008896;28;19928;-80
2023/12/08 03:11:48;;;;;;;;;;;;;;;-1.65;100.00;100746.34;5008201;28;20173;-80
2023/12/08 03:14:16;;;;;;;;;;;;;;;-1.67;100.00;100743.88;5008282;28;19929;-80
2023/12/08 03:16:46;;;;;;;;;;;;;;;-1.71;100.00;100742.63;5011866;28;19936;-80
2023/12/08 03:19:18;;;;;;;;;;;;;;;-1.73;100.00;100747.31;5004598;28;20286;-80
2023/12/08 03:21:51;;;;;;;;;;;;;;;-1.74;100.00;100735.00;5001369;28;20369;-80
2023/12/08 03:24:21;;;;;;;;;;;;;;;-1.72;100.00;100735.63;5001442;28;19929;-80
2023/12/08 03:26:49;;;;;;;;;;;;;;;-1.78;100.00;100726.56;5003807;28;20282;-80
2023/12/08 03:29:16;;;;;;;;;;;;;;;-1.77;100.00;100724.72;5000800;28;19953;-79
2023/12/08 03:31:49;;;;;;;;;;;;;;;-1.82;100.00;100711.97;5004187;28;19930;-80
2023/12/08 03:34:22;;;;;;;;;;;;;;;-1.85;100.00;100715.06;5004254;28;19991;-79
2023/12/08 03:36:55;;;;;;;;;;;;;;;-1.84;100.00;100719.34;5008870;28;19929;-79
2023/12/08 03:39:29;;;;;;;;;;;;;;;-1.82;100.00;100716.47;5002451;28;19936;-79
2023/12/08 03:41:57;;;;;;;;;;;;;;;-1.88;100.00;100721.59;4999866;28;19937;-79
2023/12/08 03:44:30;;;;;;;;;;;;;;;-1.87;100.00;100722.41;5001635;28;19929;-79
2023/12/08 03:47:03;;;;;;;;;;;;;;;-1.87;100.00;100717.06;5001383;28;19933;-79
2023/12/08 03:49:36;;;;;;;;;;;;;;;-1.92;100.00;100707.00;5014199;28;19925;-80
2023/12/08 03:52:04;;;;;;;;;;;;;;;-1.95;100.00;100709.22;5000355;28;19925;-79
2023/12/08 03:54:34;;;;;;;;;;;;;;;-1.95;100.00;100707.38;5013705;28;19926;-79
2023/12/08 03:57:06;;;;;;;;;;;;;;;-1.94;100.00;100714.38;4999833;28;19926;-79
2023/12/08 03:59:42;;;;;;;;;;;;;;;-1.96;100.00;100720.91;5001903;28;19937;-79
2023/12/08 04:02:10;;;;;;;;;;;;;;;-2.02;100.00;100722.53;4999532;28;19930;-79
2023/12/08 04:04:37;;;;;;;;;;;;;;;-2.07;100.00;100715.13;5001674;28;19929;-80
2023/12/08 04:07:05;;;;;;;;;;;;;;;-2.05;100.00;100714.91;5005774;28;19926;-79
2023/12/08 04:09:40;;;;;;;;;;;;;;;-2.03;100.00;100709.38;5001740;28;19929;-79
2023/12/08 04:12:13;;;;;;;;;;;;;;;-2.07;100.00;100707.13;5001697;28;19993;-79
2023/12/08 04:14:41;;;;;;;;;;;;;;;-2.03;100.00;100698.72;5004088;28;19928;-79
2023/12/08 04:17:14;;;;;;;;;;;;;;;-2.03;100.00;100690.72;4999782;28;20396;-79
2023/12/08 04:19:46;;;;;;;;;;;;;;;-2.07;100.00;100696.44;5000844;28;19926;-79
2023/12/08 04:22:14;;;;;;;;;;;;;;;-2.06;100.00;100699.94;5004550;28;19926;-79
2023/12/08 04:24:48;;;;;;;;;;;;;;;-2.08;100.00;100696.66;5006515;28;19929;-79
2023/12/08 04:27:16;;;;;;;;;;;;;;;-2.06;100.00;100699.94;5016246;28;20583;-79
2023/12/08 04:29:49;;;;;;;;;;;;;;;-2.05;100.00;100698.91;4999679;28;19936;-79
2023/12/08 04:32:22;;;;;;;;;;;;;;;-1.94;100.00;100697.56;5013739;28;19926;-78
2023/12/08 04:34:50;;;;;;;;;;;;;;;-2.00;100.00;100704.50;5002185;28;19928;-79
2023/12/08 04:37:18;;;;;;;;;;;;;;;-1.98;100.00;100689.09;5018231;28;19929;-79
2023/12/08 04:39:46;;;;;;;;;;;;;;;-1.95;100.00;100694.03;5002380;28;20305;-78
2023/12/08 04:42:16;;;;;;;;;;;;;;;-1.88;100.00;100684.25;5003593;28;19921;-79
2023/12/08 04:44:44;;;;;;;;;;;;;;;-1.89;100.00;100689.78;5010730;28;19924;-79
2023/12/08 04:47:12;;;;;;;;;;;;;;;-1.93;100.00;100686.69;5010748;28;19926;-79
2023/12/08 04:49:45;;;;;;;;;;;;;;;-1.93;100.00;100685.88;5004067;28;20274;-79
2023/12/08 04:52:13;;;;;;;;;;;;;;;-1.94;100.00;100693.03;5004459;28;19922;-79
2023/12/08 04:54:41;;;;;;;;;;;;;;;-1.92;100.00;100676.81;5005071;28;20306;-79
2023/12/08 04:57:14;;;;;;;;;;;;;;;-1.89;100.00;100677.25;5005745;28;19922;-79
2023/12/08 04:59:48;;;;;;;;;;;;;;;-1.90;100.00;100666.78;5009099;28;19925;-79
2023/12/08 05:02:21;;;;;;;;;;;;;;;-1.91;100.00;100673.97;5007599;28;19929;-79
2023/12/08 05:04:49;;;;;;;;;;;;;;;-1.85;100.00;100667.03;5010036;28;19921;-79
2023/12/08 05:07:22;;;;;;;;;;;;;;;-1.85;100.00;100667.03;5006920;28;19926;-79
2023/12/08 05:09:55;;;;;;;;;;;;;;;-1.83;100.00;100672.16;5004240;28;20453;-79
2023/12/08 05:12:27;;;;;;;;;;;;;;;-1.75;100.00;100666.66;5009529;28;19929;-79
2023/12/08 05:15:02;;;;;;;;;;;;;;;-1.80;100.00;100667.25;5021158;28;19930;-79
2023/12/08 05:17:30;;;;;;;;;;;;;;;-1.75;100.00;100670.16;5020604;28;19933;-79
2023/12/08 05:19:58;;;;;;;;;;;;;;;-1.76;100.00;100665.00;5003463;28;19925;-79
2023/12/08 05:22:26;;;;;;;;;;;;;;;-1.71;100.00;100659.91;5011668;28;20301;-80
2023/12/08 05:24:54;;;;;;;;;;;;;;;-1.68;100.00;100664.03;5004266;28;19933;-79
2023/12/08 05:27:22;;;;;;;;;;;;;;;-1.65;100.00;100644.94;5004362;28;19935;-79
2023/12/08 05:29:55;;;;;;;;;;;;;;;-1.62;100.00;100634.69;5003817;28;20404;-79
2023/12/08 05:32:24;;;;;;;;;;;;;;;-1.60;100.00;100626.47;5006154;28;19936;-78
2023/12/08 05:34:52;;;;;;;;;;;;;;;-1.56;100.00;100633.88;5002614;28;19925;-79
2023/12/08 05:37:25;;;;;;;;;;;;;;;-1.57;100.00;100634.09;5008709;28;20251;-79
2023/12/08 05:39:53;;;;;;;;;;;;;;;-1.59;100.00;100639.63;5007170;28;20350;-79
2023/12/08 05:42:21;;;;;;;;;;;;;;;-1.46;100.00;100630.03;5006538;28;19936;-79
2023/12/08 05:44:54;;;;;;;;;;;;;;;-1.51;100.00;100627.94;5003810;28;19929;-79
2023/12/08 05:47:22;;;;;;;;;;;;;;;-1.44;100.00;100627.97;5006110;28;19944;-79
2023/12/08 05:49:51;;;;;;;;;;;;;;;-1.43;100.00;100630.44;5008520;28;19948;-79
2023/12/08 05:52:19;;;;;;;;;;;;;;;-1.39;100.00;100631.66;5016850;28;19925;-79
2023/12/08 05:54:52;;;;;;;;;;;;;;;-1.35;100.00;100626.75;5007927;28;20389;-79
2023/12/08 05:57:25;;;;;;;;;;;;;;;-1.33;100.00;100637.22;5008868;28;19928;-79
2023/12/08 05:59:58;;;;;;;;;;;;;;;-1.29;100.00;100647.28;5005638;28;19932;-79
2023/12/08 06:02:39;;;;;;;;;;;;;;;-1.27;100.00;100653.28;5007049;28;19928;-79
2023/12/08 06:05:10;;;;;;;;;;;;;;;-1.25;100.00;100647.72;5005892;28;19959;-79
2023/12/08 06:07:38;;;;;;;;;;;;;;;-1.20;100.00;100646.09;5005445;28;19925;-79
2023/12/08 06:10:07;;;;;;;;;;;;;;;-1.17;100.00;100631.50;5005464;28;20302;-80
2023/12/08 06:12:40;;;;;;;;;;;;;;;-1.17;100.00;100628.00;5007855;28;19936;-80
2023/12/08 06:15:09;;;;;;;;;;;;;;;-1.15;100.00;100632.13;5005262;28;20298;-79
2023/12/08 06:17:37;;;;;;;;;;;;;;;-1.12;100.00;100620.22;5009355;28;19925;-79
2023/12/08 06:20:10;;;;;;;;;;;;;;;-1.09;100.00;100615.28;5002554;28;19930;-79
2023/12/08 06:22:40;;;;;;;;;;;;;;;-1.05;100.00;100613.03;5002347;28;19925;-79
2023/12/08 06:25:13;;;;;;;;;;;;;;;-1.05;100.00;100602.34;5007389;28;19936;-79
2023/12/08 06:27:45;;;;;;;;;;;;;;;-1.03;100.00;100598.44;5018751;28;19933;-79
2023/12/08 06:30:19;;;;;;;;;;;;;;;-1.01;100.00;100608.09;5007653;28;19926;-80
2023/12/08 06:32:51;;;;;;;;;;;;;;;-0.99;100.00;100609.53;5019638;28;20416;-79
2023/12/08 06:35:24;;;;;;;;;;;;;;;-1.00;100.00;100599.88;5021220;28;19926;-79
2023/12/08 06:37:54;;;;;;;;;;;;;;;-1.00;100.00;100591.88;5005875;28;20368;-79
2023/12/08 06:40:22;;;;;;;;;;;;;;;-0.95;100.00;100597.41;5004414;28;19925;-79
2023/12/08 06:42:55;;;;;;;;;;;;;;;-0.94;100.00;100595.56;5010526;28;20611;-79
2023/12/08 06:45:22;;;;;;;;;;;;;;;-0.89;100.00;100601.94;5001462;28;20370;-79
2023/12/08 06:47:50;;;;;;;;;;;;;;;-0.91;100.00;100608.50;5001837;28;19926;-79
2023/12/08 06:50:18;;;;;;;;;;;;;;;-0.91;100.00;100600.47;5003430;28;20368;-79
2023/12/08 06:52:51;;;;;;;;;;;;;;;-0.90;100.00;100602.97;5000344;28;19922;-79
2023/12/08 06:55:26;;;;;;;;;;;;;;;-0.92;100.00;100594.34;5018047;28;19925;-79
2023/12/08 06:57:54;;;;;;;;;;;;;;;-0.87;100.00;100605.22;5009113;28;19925;-79
2023/12/08 07:00:27;;;;;;;;;;;;;;;-0.87;100.00;100604.38;5004785;28;19925;-80
2023/12/08 07:02:55;;;;;;;;;;;;;;;-0.88;100.00;100608.91;5004629;28;19932;-81
2023/12/08 07:05:28;;;;;;;;;;;;;;;-0.87;100.00;100602.56;5010315;28;19921;-79
2023/12/08 07:07:56;;;;;;;;;;;;;;;-0.85;100.00;100597.00;4999513;28;19926;-79
2023/12/08 07:10:30;;;;;;;;;;;;;;;-0.86;100.00;100596.19;5002910;28;19932;-80
2023/12/08 07:12:58;;;;;;;;;;;;;;;-0.83;100.00;100592.25;4999452;28;20437;-79
2023/12/08 07:15:27;;;;;;;;;;;;;;;-0.82;100.00;100582.41;5003926;28;20370;-79
2023/12/08 07:17:55;;;;;;;;;;;;;;;-0.85;100.00;100583.66;5004200;28;19929;-79
2023/12/08 07:20:23;;;;;;;;;;;;;;;-0.84;100.00;100581.78;5002066;28;19930;-80
2023/12/08 07:22:56;;;;;;;;;;;;;;;-0.82;100.00;100583.22;5008624;28;19921;-79
2023/12/08 07:25:24;;;;;;;;;;;;;;;-0.82;100.00;100577.88;5005471;28;19921;-79
2023/12/08 07:27:54;;;;;;;;;;;;;;;-0.81;100.00;100584.88;5019703;28;19929;-79
2023/12/08 07:30:27;;;;;;;;;;;;;;;-0.81;100.00;100576.84;5000093;28;19925;-79
2023/12/08 07:32:54;;;;;;;;;;;;;;;-0.81;100.00;100584.88;5001930;28;19925;-80
2023/12/08 07:35:27;;;;;;;;;;;;;;;-0.78;100.00;100586.31;5006067;28;20297;-79
2023/12/08 07:38:00;;;;;;;;;;;;;;;-0.79;100.00;100582.81;5008578;28;20275;-80
2023/12/08 07:40:36;;;;;;;;;;;;;;;-0.79;100.00;100580.13;5005071;28;19929;-79
2023/12/08 07:43:05;;;;;;;;;;;;;;;-0.77;100.00;100587.97;5018698;28;19929;-80
2023/12/08 07:45:33;;;;;;;;;;;;;;;-0.76;100.00;100578.91;5006839;28;20621;-79
2023/12/08 07:48:01;;;;;;;;;;;;;;;-0.77;100.00;100583.44;5002605;28;19925;-79
2023/12/08 07:50:29;;;;;;;;;;;;;;;-0.75;100.00;100575.22;5007345;28;19929;-79
2023/12/08 07:53:02;;;;;;;;;;;;;;;-0.75;100.00;100577.88;5003926;28;19925;-80
2023/12/08 07:55:37;;;;;;;;;;;;;;;-0.72;100.00;100578.31;5003954;28;20499;-81
2023/12/08 07:58:11;;;;;;;;;;;;;;;-0.70;100.00;100570.06;5000748;28;19925;-80
2023/12/08 08:00:44;;;;;;;;;;;;;;;-0.71;100.00;100563.88;5000717;28;19936;-80
2023/12/08 08:03:17;;;;;;;;;;;;;;;-0.69;100.00;100569.06;4999486;28;19922;-80
2023/12/08 08:05:45;;;;;;;;;;;;;;;-0.70;100.00;100559.38;5003037;28;20370;-80
2023/12/08 08:08:13;;;;;;;;;;;;;;;-0.63;100.00;100554.03;5005235;28;20444;-79
2023/12/08 08:10:46;;;;;;;;;;;;;;;-0.64;100.00;100552.38;5004368;28;20390;-80
2023/12/08 08:13:20;;;;;;;;;;;;;;;-0.64;100.00;100555.06;5004613;28;20357;-80
2023/12/08 08:15:53;;;;;;;;;;;;;;;-0.65;100.00;100546.19;5002765;28;19925;-80
2023/12/08 08:18:21;;;;;;;;;;;;;;;-0.63;100.00;100543.34;5004087;28;19928;-81
2023/12/08 08:20:54;;;;;;;;;;;;;;;-0.61;100.00;100544.75;5008963;28;19929;-79
2023/12/08 08:23:27;;;;;;;;;;;;;;;-0.60;100.00;100541.06;5003386;28;20359;-78
2023/12/08 08:26:01;;;;;;;;;;;;;;;-0.58;100.00;100551.53;4966148;28;19943;-79
2023/12/08 08:28:35;;;;;;;;;;;;;;;-0.56;100.00;100552.16;4985345;28;19929;-80
2023/12/08 08:31:03;;;;;;;;;;;;;;;-0.58;100.00;100546.19;4992058;28;19933;-80
2023/12/08 08:33:31;;;;;;;;;;;;;;;-0.51;100.00;100560.38;4988062;28;20490;-79
2023/12/08 08:35:59;;;;;;;;;;;;;;;-0.51;100.00;100560.38;4989380;28;19929;-80
2023/12/08 08:38:32;;;;;;;;;;;;;;;-0.49;100.00;100563.66;4989107;28;20632;-80
2023/12/08 08:41:05;;;;;;;;;;;;;;;-0.51;100.00;100568.41;4990193;28;19944;-79
2023/12/08 08:43:42;;;;;;;;;;;;;;;-0.54;100.00;100572.31;4987950;28;19929;-80
2023/12/08 08:46:10;;;;;;;;;;;;;;;-0.52;100.00;100564.06;4993505;28;19936;-80
2023/12/08 08:48:38;;;;;;;;;;;;;;;-0.50;100.00;100561.19;5000592;28;20055;-81
2023/12/08 08:51:11;;;;;;;;;;;;;;;-0.50;100.00;100555.84;4999409;28;19935;-80
2023/12/08 08:53:39;;;;;;;;;;;;;;;-0.47;100.00;100566.09;4985951;28;20389;-80
2023/12/08 08:56:15;;;;;;;;;;;;;;;-0.48;100.00;100565.28;4998627;28;19936;-80
2023/12/08 08:58:44;;;;;;;;;;;;;;;-0.47;100.00;100566.94;4984656;28;19929;-81
2023/12/08 09:01:12;;;;;;;;;;;;;;;-0.48;100.00;100562.63;4990332;28;19937;-81
2023/12/08 09:03:40;;;;;;;;;;;;;;;-0.44;100.00;100557.66;4990030;28;19936;-79
2023/12/08 09:06:13;;;;;;;;;;;;;;;-0.46;100.00;100555.19;4994877;28;20487;-80
2023/12/08 09:08:41;;;;;;;;;;;;;;;-0.41;100.00;100557.28;4990109;28;19936;-82
2023/12/08 09:11:09;;;;;;;;;;;;;;;-0.45;100.00;100542.66;4999864;28;19929;-81
2023/12/08 09:13:44;;;;;;;;;;;;;;;-0.45;100.00;100534.66;5001177;28;19932;-80
2023/12/08 09:16:12;;;;;;;;;;;;;;;-0.41;100.00;100541.22;4999867;28;19951;-81
2023/12/08 09:18:45;;;;;;;;;;;;;;;-0.41;100.00;100547.38;4996085;28;19936;-81
2023/12/08 09:21:28;;;;;;;;;;;;;;;-0.36;100.00;100541.38;4991015;28;19936;-82
2023/12/08 09:24:05;;;;;;;;;;;;;;;-0.40;100.00;100540.16;4995317;28;19948;-81
2023/12/08 09:26:40;;;;;;;;;;;;;;;-0.40;100.00;100540.16;4967503;28;20543;-82
2023/12/08 09:29:14;;;;;;;;;;;;;;;-0.33;100.00;100532.13;4996017;28;19929;-82
2023/12/08 09:31:42;;;;;;;;;;;;;;;-0.40;100.00;100519.63;4996549;28;19921;-82
2023/12/08 09:34:10;;;;;;;;;;;;;;;-0.41;100.00;100531.34;4999089;28;19936;-82
2023/12/08 09:36:38;;;;;;;;;;;;;;;-0.39;100.00;100523.09;4997877;28;19928;-81
2023/12/08 09:39:17;;;;;;;;;;;;;;;-0.36;100.00;100531.53;4992828;28;19935;-81
2023/12/08 09:41:52;;;;;;;;;;;;;;;-0.34;100.00;100536.66;4996126;28;19945;-81
2023/12/08 09:44:21;;;;;;;;;;;;;;;-0.31;100.00;100530.88;4999905;28;19940;-82
2023/12/08 09:46:55;;;;;;;;;;;;;;;-0.29;100.00;100525.31;5005360;28;20859;-83
2023/12/08 09:49:27;;;;;;;;;;;;;;;-0.29;100.00;100526.16;5003343;28;19930;-81
2023/12/08 09:51:56;;;;;;;;;;;;;;;-0.32;100.00;100523.91;5001002;28;19940;-81
2023/12/08 09:54:24;;;;;;;;;;;;;;;-0.31;100.00;100519.38;4999965;28;19929;-83
2023/12/08 09:56:54;;;;;;;;;;;;;;;-0.27;100.00;100517.94;4995180;28;19936;-81
2023/12/08 09:59:24;;;;;;;;;;;;;;;-0.29;100.00;100509.28;4997398;28;19930;-81
2023/12/08 10:01:57;;;;;;;;;;;;;;;-0.27;100.00;100509.91;4994853;28;19936;-81
2023/12/08 10:04:30;;;;;;;;;;;;;;;-0.30;100.00;100512.97;4999142;28;19928;-83
2023/12/08 10:07:02;;;;;;;;;;;;;;;-0.29;100.00;100517.31;4998738;28;20687;-81
2023/12/08 10:09:30;;;;;;;;;;;;;;;-0.26;100.00;100504.34;4995359;28;20506;-82
2023/12/08 10:12:03;;;;;;;;;;;;;;;-0.31;100.00;100504.16;4991859;28;19929;-81
2023/12/08 10:14:50;;;;;;;;;;;;;;;-0.29;100.00;100496.75;4997444;28;20305;-82
2023/12/08 10:17:18;;;;;;;;;;;;;;;-0.23;100.00;100497.75;4996018;28;19929;-83
2023/12/08 10:19:52;;;;;;;;;;;;;;;-0.24;100.00;100504.13;4999248;28;19921;-82
2023/12/08 10:22:21;;;;;;;;;;;;;;;-0.27;100.00;100492.00;4999139;28;19929;-82
2023/12/08 10:24:53;;;;;;;;;;;;;;;-0.27;100.00;100488.50;4998206;28;19929;-81
2023/12/08 10:27:29;;;;;;;;;;;;;;;-0.25;100.00;100481.09;4971359;28;19929;-81
2023/12/08 10:30:03;;;;;;;;;;;;;;;-0.32;100.00;100474.94;4993940;28;21186;-82
2023/12/08 10:32:31;;;;;;;;;;;;;;;-0.27;100.00;100470.59;4999993;28;20529;-82
2023/12/08 10:34:59;;;;;;;;;;;;;;;-0.28;100.00;100471.63;5000913;28;19929;-83
2023/12/08 10:37:27;;;;;;;;;;;;;;;-0.23;100.00;100462.97;5001300;28;19939;-82
2023/12/08 10:39:56;;;;;;;;;;;;;;;-0.27;100.00;100453.75;4999108;28;19936;-84
2023/12/08 10:42:29;;;;;;;;;;;;;;;-0.23;100.00;100447.75;4997578;28;19921;-82
2023/12/08 10:44:59;;;;;;;;;;;;;;;-0.30;100.00;100444.28;5001652;28;19943;-83
2023/12/08 10:47:28;;;;;;;;;;;;;;;-0.30;100.00;100457.66;4996404;28;19929;-82
2023/12/08 10:49:57;;;;;;;;;;;;;;;-0.26;100.00;100450.00;4998856;28;19928;-82
2023/12/08 10:52:30;;;;;;;;;;;;;;;-0.26;100.00;100434.81;5000298;28;19940;-84
2023/12/08 10:54:58;;;;;;;;;;;;;;;-0.26;100.00;100440.16;5001255;28;19937;-83
2023/12/08 10:57:26;;;;;;;;;;;;;;;-0.26;100.00;100444.66;4996636;28;19928;-81
2023/12/08 10:59:58;;;;;;;;;;;;;;;-0.22;100.00;100451.22;4995707;28;19960;-81
2023/12/08 11:02:31;;;;;;;;;;;;;;;-0.25;100.00;100447.16;4997472;28;19940;-84
2023/12/08 11:05:05;;;;;;;;;;;;;;;-0.26;100.00;100445.50;4997987;28;21086;-81
2023/12/08 11:07:36;;;;;;;;;;;;;;;-0.23;100.00;100431.69;5002666;28;19964;-83
2023/12/08 11:10:11;;;;;;;;;;;;;;;-0.20;100.00;100441.97;5002102;28;19929;-83
2023/12/08 11:12:42;;;;;;;;;;;;;;;-0.16;100.00;100446.91;4997627;28;20325;-83
2023/12/08 11:15:16;;;;;;;;;;;;;;;-0.18;100.00;100449.75;5001920;28;19929;-84
2023/12/08 11:17:49;;;;;;;;;;;;;;;-0.19;100.00;100448.16;4997246;28;19929;-83
2023/12/08 11:20:17;;;;;;;;;;;;;;;-0.15;100.00;100459.22;4995641;28;19933;-85
2023/12/08 11:22:45;;;;;;;;;;;;;;;-0.16;100.00;100446.91;5002301;28;19928;-83
2023/12/08 11:25:22;;;;;;;;;;;;;;;-0.13;100.00;100431.22;4987832;28;19948;-84
2023/12/08 11:27:54;;;;;;;;;;;;;;;-0.14;100.00;100437.59;5011355;28;19929;-83
2023/12/08 11:30:30;;;;;;;;;;;;;;;-0.22;100.00;100432.50;4995191;28;19929;-84
2023/12/08 11:33:12;;;;;;;;;;;;;;;-0.15;100.00;100429.81;4995225;28;19929;-83
2023/12/08 11:35:49;;;;;;;;;;;;;;;-0.16;100.00;100430.84;4999012;28;19929;-84
2023/12/08 11:38:26;;;;;;;;;;;;;;;-0.18;100.00;100428.38;5002926;28;19925;-84
2023/12/08 11:40:54;;;;;;;;;;;;;;;-0.14;100.00;100431.44;5006233;28;19936;-83
2023/12/08 11:43:22;;;;;;;;;;;;;;;-0.15;100.00;100424.44;5000050;28;20408;-83
2023/12/08 11:45:55;;;;;;;;;;;;;;;-0.16;100.00;100425.50;5000784;28;19929;-83
2023/12/08 11:48:25;;;;;;;;;;;;;;;-0.13;100.00;100415.19;5002307;28;20615;-83
2023/12/08 11:51:00;;;;;;;;;;;;;;;-0.13;100.00;100414.38;4996268;28;19952;-83
2023/12/08 11:53:28;;;;;;;;;;;;;;;-0.18;100.00;100413.16;5005142;28;20377;-83
2023/12/08 11:56:01;;;;;;;;;;;;;;;-0.10;100.00;100416.59;4996468;28;19959;-83
2023/12/08 11:58:33;;;;;;;;;;;;;;;-0.12;100.00;100416.03;5002630;28;19929;-84
2023/12/08 12:01:02;;;;;;;;;;;;;;;-0.15;100.00;100411.06;4999240;28;19929;-82
2023/12/08 12:03:31;;;;;;;;;;;;;;;-0.15;100.00;100408.41;4998105;28;19933;-82
2023/12/08 12:05:59;;;;;;;;;;;;;;;-0.14;100.00;100400.16;5003164;28;20420;-83
2023/12/08 12:08:33;;;;;;;;;;;;;;;-0.12;100.00;100398.09;4995038;28;19936;-82
2023/12/08 12:11:02;;;;;;;;;;;;;;;-0.14;100.00;100392.13;4989756;28;19945;-82
2023/12/08 12:13:32;;;;;;;;;;;;;;;-0.12;100.00;100392.75;4994284;28;19929;-82
2023/12/08 12:16:00;;;;;;;;;;;;;;;-0.14;100.00;100397.47;5001037;28;20594;-81
2023/12/08 12:18:30;;;;;;;;;;;;;;;-0.08;100.00;100393.16;4997352;28;19921;-81
2023/12/08 12:20:59;;;;;;;;;;;;;;;-0.12;100.00;100403.44;4993681;28;19929;-82
2023/12/08 12:23:32;;;;;;;;;;;;;;;-0.10;100.00;100392.53;4993840;28;19928;-82
2023/12/08 12:26:10;;;;;;;;;;;;;;;-0.11;100.00;100370.31;4974095;28;19925;-81
2023/12/08 12:28:38;;;;;;;;;;;;;;;-0.12;100.00;100371.34;4997398;28;20305;-81
2023/12/08 12:31:06;;;;;;;;;;;;;;;-0.15;100.00;100371.78;4992558;28;19951;-81
2023/12/08 12:33:36;;;;;;;;;;;;;;;-0.18;100.00;100373.03;4993411;28;20809;-81
2023/12/08 12:36:11;;;;;;;;;;;;;;;-0.25;100.00;100356.22;4995967;28;19929;-81
2023/12/08 12:38:40;;;;;;;;;;;;;;;-0.26;100.00;100362.59;4997560;28;19941;-81
2023/12/08 12:41:20;;;;;;;;;;;;;;;-0.22;100.00;100360.31;5000171;28;19925;-82
2023/12/08 12:43:56;;;;;;;;;;;;;;;-0.24;100.00;100357.03;4995679;28;19929;-82
2023/12/08 12:46:25;;;;;;;;;;;;;;;-0.31;100.00;100351.72;4994614;28;19939;-82